createdAt,value
2018-08-08T00:00:23.056Z,1.50
2018-08-08T00:02:56.801Z,1.60
2018-08-08T00:05:30.592Z,1.77
2018-08-08T00:08:04.369Z,1.50
2018-08-08T00:10:38.039Z,1.83
2018-08-08T00:13:12.208Z,1.30
2018-08-08T00:15:46.215Z,1.80
2018-08-08T00:18:20.012Z,1.43
2018-08-08T00:20:53.712Z,1.53
2018-08-08T00:23:27.641Z,1.37
2018-08-08T00:26:01.338Z,1.30
2018-08-08T00:28:35.320Z,1.87
2018-08-08T00:31:09.663Z,1.73
2018-08-08T00:33:43.663Z,2.00
2018-08-08T00:36:17.605Z,1.53
2018-08-08T00:38:51.417Z,1.50
2018-08-08T00:41:25.332Z,1.63
2018-08-08T00:43:59.223Z,1.47
2018-08-08T00:46:33.213Z,1.60
2018-08-08T00:49:07.113Z,1.80
2018-08-08T00:51:41.110Z,1.93
2018-08-08T00:54:14.970Z,1.93
2018-08-08T00:56:48.801Z,1.50
2018-08-08T00:59:22.734Z,1.47
2018-08-08T01:01:56.696Z,1.53
2018-08-08T01:04:30.504Z,1.73
2018-08-08T01:07:04.617Z,1.60
2018-08-08T01:09:38.498Z,1.50
2018-08-08T01:12:12.351Z,1.90
2018-08-08T01:14:46.210Z,1.33
2018-08-08T01:17:20.110Z,1.73
2018-08-08T01:19:53.996Z,1.57
2018-08-08T01:22:27.836Z,1.50
2018-08-08T01:25:01.657Z,1.73
2018-08-08T01:27:35.675Z,1.50
2018-08-08T01:30:10.720Z,1.50
2018-08-08T01:32:44.621Z,1.70
2018-08-08T01:35:18.668Z,2.07
2018-08-08T01:37:52.619Z,1.50
2018-08-08T01:40:26.436Z,1.70
2018-08-08T01:43:00.556Z,1.80
2018-08-08T01:45:34.725Z,1.40
2018-08-08T01:48:08.547Z,1.90
2018-08-08T01:50:42.414Z,1.47
2018-08-08T01:53:16.196Z,1.80
2018-08-08T01:55:50.168Z,1.70
2018-08-08T01:58:24.008Z,1.53
2018-08-08T02:00:57.926Z,1.90
2018-08-08T02:03:31.853Z,1.50
2018-08-08T02:06:05.645Z,2.20
2018-08-08T02:08:40.309Z,1.63
2018-08-08T02:11:14.498Z,1.70
2018-08-08T02:13:48.284Z,1.70
2018-08-08T02:16:22.218Z,1.70
2018-08-08T02:18:56.043Z,1.50
2018-08-08T02:21:29.955Z,1.80
2018-08-08T02:24:03.940Z,1.80
2018-08-08T02:26:38.141Z,1.77
2018-08-08T02:29:12.188Z,1.50
2018-08-08T02:31:46.230Z,1.70
2018-08-08T02:34:20.158Z,1.73
2018-08-08T02:36:54.235Z,1.70
2018-08-08T02:39:28.114Z,1.67
2018-08-08T02:42:01.843Z,1.60
2018-08-08T02:44:35.949Z,1.90
2018-08-08T02:47:09.930Z,1.60
2018-08-08T02:49:45.008Z,1.87
2018-08-08T02:52:18.789Z,2.00
2018-08-08T02:54:52.576Z,2.10
2018-08-08T02:57:26.375Z,1.73
2018-08-08T03:00:00.336Z,1.90
2018-08-08T03:02:34.246Z,1.73
2018-08-08T03:05:09.068Z,1.67
2018-08-08T03:07:43.677Z,1.60
2018-08-08T03:10:18.372Z,1.77
2018-08-08T03:12:52.272Z,1.80
2018-08-08T03:15:26.056Z,1.70
2018-08-08T03:17:59.864Z,1.87
2018-08-08T03:20:33.657Z,2.03
2018-08-08T03:23:07.482Z,1.90
2018-08-08T03:25:41.443Z,1.70
2018-08-08T03:28:15.162Z,1.97
2018-08-08T03:30:49.582Z,1.90
2018-08-08T03:33:23.538Z,2.30
2018-08-08T03:35:57.319Z,2.40
2018-08-08T03:38:31.143Z,2.17
2018-08-08T03:41:05.069Z,2.10
2018-08-08T03:43:38.874Z,2.53
2018-08-08T03:46:12.791Z,2.40
2018-08-08T03:48:46.763Z,2.37
2018-08-08T03:51:20.614Z,2.43
2018-08-08T03:53:54.523Z,2.20
2018-08-08T03:56:28.412Z,2.10
2018-08-08T03:59:02.320Z,2.63
2018-08-08T04:01:36.277Z,2.20
2018-08-08T04:04:10.135Z,1.93
2018-08-08T04:06:43.979Z,2.17
2018-08-08T04:09:18.161Z,2.10
2018-08-08T04:11:52.121Z,2.03
2018-08-08T04:14:25.799Z,2.10
2018-08-08T04:16:59.584Z,2.07
2018-08-08T04:19:33.380Z,2.43
2018-08-08T04:22:07.479Z,2.77
2018-08-08T04:24:41.213Z,2.83
2018-08-08T04:27:15.339Z,2.90
2018-08-08T04:29:49.743Z,2.50
2018-08-08T04:32:23.455Z,3.10
2018-08-08T04:34:57.454Z,3.10
2018-08-08T04:37:31.311Z,2.70
2018-08-08T04:40:05.690Z,3.30
2018-08-08T04:42:39.617Z,3.57
2018-08-08T04:45:14.073Z,3.17
2018-08-08T04:47:48.022Z,4.03
2018-08-08T04:50:21.952Z,3.90
2018-08-08T04:52:55.886Z,3.90
2018-08-08T04:55:30.018Z,3.83
2018-08-08T04:58:03.879Z,4.10
2018-08-08T05:00:37.818Z,4.10
2018-08-08T05:03:11.578Z,4.30
2018-08-08T05:05:45.520Z,3.73
2018-08-08T05:08:19.468Z,4.17
2018-08-08T05:10:53.483Z,3.83
2018-08-08T05:13:27.355Z,4.00
2018-08-08T05:16:01.315Z,3.90
2018-08-08T05:18:35.237Z,3.90
2018-08-08T05:21:09.101Z,3.60
2018-08-08T05:23:43.087Z,3.60
2018-08-08T05:26:17.092Z,3.37
2018-08-08T05:28:50.935Z,3.47
2018-08-08T05:31:24.916Z,3.47
2018-08-08T05:33:58.935Z,3.77
2018-08-08T05:36:33.147Z,3.70
2018-08-08T05:39:08.749Z,3.70
2018-08-08T05:41:43.272Z,3.37
2018-08-08T05:44:17.308Z,3.63
2018-08-08T05:46:51.305Z,3.50
2018-08-08T05:49:25.198Z,3.10
2018-08-08T05:51:59.133Z,3.13
2018-08-08T05:54:33.008Z,2.70
2018-08-08T05:57:07.134Z,3.03
2018-08-08T05:59:40.962Z,3.20
2018-08-08T06:02:14.910Z,3.53
2018-08-08T06:04:48.784Z,3.27
2018-08-08T06:07:22.689Z,3.33
2018-08-08T06:09:56.684Z,3.27
2018-08-08T06:12:30.721Z,3.03
2018-08-08T06:15:05.817Z,2.83
2018-08-08T06:17:40.217Z,2.50
2018-08-08T06:20:16.118Z,2.77
2018-08-08T06:22:50.653Z,2.60
2018-08-08T06:25:24.488Z,2.90
2018-08-08T06:27:58.473Z,2.67
2018-08-08T06:30:32.366Z,2.87
2018-08-08T06:33:06.454Z,2.50
2018-08-08T06:35:40.248Z,2.50
2018-08-08T06:38:14.167Z,2.73
2018-08-08T06:40:47.876Z,2.50
2018-08-08T06:43:21.780Z,2.37
2018-08-08T06:45:55.846Z,2.50
2018-08-08T06:48:29.665Z,2.20
2018-08-08T06:51:03.693Z,2.47
2018-08-08T06:53:37.428Z,2.20
2018-08-08T06:56:11.206Z,2.30
2018-08-08T06:58:45.263Z,2.13
2018-08-08T07:01:19.234Z,2.27
2018-08-08T07:03:53.165Z,2.00
2018-08-08T07:06:27.161Z,2.17
2018-08-08T07:09:00.985Z,2.53
2018-08-08T07:11:34.865Z,1.80
2018-08-08T07:14:08.682Z,1.77
2018-08-08T07:16:42.617Z,2.23
2018-08-08T07:19:16.454Z,1.80
2018-08-08T07:21:50.381Z,1.60
2018-08-08T07:24:24.234Z,1.80
2018-08-08T07:26:58.153Z,1.80
2018-08-08T07:29:32.001Z,2.07
2018-08-08T07:32:05.901Z,1.77
2018-08-08T07:34:39.722Z,1.87
2018-08-08T07:37:13.766Z,1.67
2018-08-08T07:39:47.597Z,1.80
2018-08-08T07:42:21.933Z,1.93
2018-08-08T07:44:55.851Z,1.43
2018-08-08T07:47:29.829Z,1.60
2018-08-08T07:50:04.109Z,1.53
2018-08-08T07:52:38.032Z,1.60
2018-08-08T07:55:12.289Z,1.70
2018-08-08T07:57:46.721Z,1.50
2018-08-08T08:00:24.524Z,1.70
2018-08-08T08:02:58.920Z,1.50
2018-08-08T08:05:32.774Z,1.53
2018-08-08T08:08:06.896Z,1.53
2018-08-08T08:10:40.647Z,1.70
2018-08-08T08:13:14.552Z,1.80
2018-08-08T08:15:48.233Z,1.80
2018-08-08T08:18:22.060Z,1.50
2018-08-08T08:20:55.681Z,1.80
2018-08-08T08:23:29.564Z,1.90
2018-08-08T08:26:03.268Z,1.90
2018-08-08T08:28:37.110Z,1.40
2018-08-08T08:31:10.980Z,1.50
2018-08-08T08:33:44.746Z,1.50
2018-08-08T08:36:18.698Z,1.40
2018-08-08T08:38:52.639Z,1.17
2018-08-08T08:41:26.617Z,1.20
2018-08-08T08:44:00.373Z,1.50
2018-08-08T08:46:34.315Z,1.23
2018-08-08T08:49:08.180Z,1.47
2018-08-08T08:51:42.087Z,1.67
2018-08-08T08:54:15.822Z,1.60
2018-08-08T08:56:49.788Z,1.37
2018-08-08T08:59:23.661Z,1.93
2018-08-08T09:01:57.319Z,1.47
2018-08-08T09:04:31.187Z,1.60
2018-08-08T09:07:05.287Z,1.50
2018-08-08T09:09:39.072Z,1.60
2018-08-08T09:12:13.122Z,1.70
2018-08-08T09:14:46.921Z,1.30
2018-08-08T09:17:20.848Z,1.40
2018-08-08T09:19:54.685Z,1.40
2018-08-08T09:22:28.473Z,1.27
2018-08-08T09:25:02.233Z,1.43
2018-08-08T09:27:36.446Z,1.50
2018-08-08T09:30:11.638Z,1.43
2018-08-08T09:32:45.706Z,1.43
2018-08-08T09:35:19.596Z,1.37
2018-08-08T09:37:53.466Z,1.60
2018-08-08T09:40:27.257Z,1.20
2018-08-08T09:43:01.152Z,1.30
2018-08-08T09:45:35.236Z,1.70
2018-08-08T09:48:09.157Z,1.50
2018-08-08T09:50:43.030Z,1.53
2018-08-08T09:53:16.984Z,1.50
2018-08-08T09:55:50.836Z,1.60
2018-08-08T09:58:24.546Z,1.47
2018-08-08T10:01:03.839Z,1.40
2018-08-08T10:03:38.936Z,1.50
2018-08-08T10:06:12.869Z,1.60
2018-08-08T10:08:46.505Z,1.37
2018-08-08T10:11:21.228Z,1.50
2018-08-08T10:13:55.145Z,1.50
2018-08-08T10:16:28.956Z,1.73
2018-08-08T10:19:02.912Z,1.50
2018-08-08T10:21:36.731Z,1.50
2018-08-08T10:24:10.544Z,1.60
2018-08-08T10:26:44.618Z,1.53
2018-08-08T10:29:18.470Z,1.90
2018-08-08T10:31:52.439Z,1.80
2018-08-08T10:34:26.406Z,1.60
2018-08-08T10:37:00.257Z,1.57
2018-08-08T10:39:33.917Z,2.03
2018-08-08T10:42:07.796Z,1.67
2018-08-08T10:44:41.568Z,1.90
2018-08-08T10:47:15.431Z,1.57
2018-08-08T10:49:49.320Z,1.53
2018-08-08T10:52:23.111Z,1.70
2018-08-08T10:54:57.067Z,1.70
2018-08-08T10:57:30.843Z,1.70
2018-08-08T11:00:05.946Z,1.80
2018-08-08T11:02:40.357Z,1.83
2018-08-08T11:05:14.320Z,1.73
2018-08-08T11:07:48.208Z,1.57
2018-08-08T11:10:21.972Z,1.73
2018-08-08T11:12:55.784Z,1.93
2018-08-08T11:15:29.693Z,1.53
2018-08-08T11:18:03.699Z,1.67
2018-08-08T11:20:37.784Z,1.70
2018-08-08T11:23:11.457Z,1.60
2018-08-08T11:25:45.470Z,1.90
2018-08-08T11:28:19.433Z,1.70
2018-08-08T11:30:53.329Z,2.00
2018-08-08T11:33:26.892Z,1.73
2018-08-08T11:36:00.854Z,2.10
2018-08-08T11:38:34.745Z,2.00
2018-08-08T11:41:08.655Z,2.07
2018-08-08T11:43:42.472Z,1.97
2018-08-08T11:46:16.177Z,2.00
2018-08-08T11:48:50.158Z,1.90
2018-08-08T11:51:24.000Z,2.07
2018-08-08T11:53:57.938Z,2.43
2018-08-08T11:56:31.733Z,1.80
2018-08-08T11:59:05.699Z,1.87
2018-08-08T12:01:39.660Z,1.90
2018-08-08T12:04:13.344Z,2.13
2018-08-08T12:06:47.285Z,1.87
2018-08-08T12:09:21.085Z,1.70
2018-08-08T12:11:54.993Z,2.03
2018-08-08T12:14:28.797Z,1.70
2018-08-08T12:17:02.551Z,1.87
2018-08-08T12:19:36.276Z,2.03
2018-08-08T12:22:10.213Z,2.07
2018-08-08T12:24:43.988Z,1.70
2018-08-08T12:27:17.838Z,1.57
2018-08-08T12:29:51.453Z,1.47
2018-08-08T12:32:25.343Z,1.83
2018-08-08T12:34:59.132Z,1.50
2018-08-08T12:37:33.248Z,1.37
2018-08-08T12:40:07.628Z,1.80
2018-08-08T12:42:41.573Z,1.80
2018-08-08T12:45:15.381Z,1.50
2018-08-08T12:47:49.288Z,1.73
2018-08-08T12:50:23.376Z,1.50
2018-08-08T12:52:57.121Z,1.40
2018-08-08T12:55:31.117Z,1.50
2018-08-08T12:58:04.901Z,1.80
2018-08-08T13:00:38.712Z,1.70
2018-08-08T13:03:12.433Z,1.40
2018-08-08T13:05:46.121Z,1.67
2018-08-08T13:08:19.988Z,1.47
2018-08-08T13:10:53.782Z,1.53
2018-08-08T13:13:27.654Z,1.60
2018-08-08T13:16:01.526Z,1.50
2018-08-08T13:18:35.414Z,1.83
2018-08-08T13:21:09.374Z,1.50
2018-08-08T13:23:43.238Z,1.60
2018-08-08T13:26:17.134Z,1.80
2018-08-08T13:28:50.881Z,1.70
2018-08-08T13:31:24.863Z,1.40
2018-08-08T13:33:58.807Z,1.40
2018-08-08T13:36:32.608Z,1.70
2018-08-08T13:39:08.062Z,1.43
2018-08-08T13:41:41.936Z,1.00
2018-08-08T13:44:15.584Z,1.43
2018-08-08T13:46:49.688Z,1.50
2018-08-08T13:49:23.496Z,1.50
2018-08-08T13:51:57.480Z,1.70
2018-08-08T13:54:31.082Z,1.57
2018-08-08T13:57:05.473Z,1.67
2018-08-08T13:59:39.376Z,1.60
2018-08-08T14:02:13.276Z,1.40
2018-08-08T14:04:47.174Z,1.23
2018-08-08T14:07:21.138Z,1.70
2018-08-08T14:09:54.907Z,2.13
2018-08-08T14:12:28.720Z,1.50
2018-08-08T14:15:02.495Z,1.67
2018-08-08T14:17:36.511Z,1.80
2018-08-08T14:20:11.536Z,1.90
2018-08-08T14:22:45.496Z,1.60
2018-08-08T14:25:19.452Z,1.60
2018-08-08T14:27:53.281Z,1.47
2018-08-08T14:30:27.044Z,1.40
2018-08-08T14:33:00.904Z,1.40
2018-08-08T14:35:34.845Z,1.30
2018-08-08T14:38:08.680Z,1.50
2018-08-08T14:40:42.533Z,1.40
2018-08-08T14:43:16.165Z,1.53
2018-08-08T14:45:50.336Z,1.57
2018-08-08T14:48:24.021Z,1.47
2018-08-08T14:50:57.925Z,1.80
2018-08-08T14:53:32.118Z,1.80
2018-08-08T14:56:06.013Z,1.57
2018-08-08T14:58:39.835Z,1.30
2018-08-08T15:01:13.520Z,1.33
2018-08-08T15:03:47.304Z,1.13
2018-08-08T15:06:21.405Z,1.37
2018-08-08T15:08:55.133Z,1.20
2018-08-08T15:11:28.840Z,1.33
2018-08-08T15:14:02.854Z,1.10
2018-08-08T15:16:36.633Z,1.40
2018-08-08T15:19:10.511Z,1.13
2018-08-08T15:21:44.460Z,0.97
2018-08-08T15:24:18.303Z,0.80
2018-08-08T15:26:52.211Z,1.43
2018-08-08T15:29:26.077Z,1.13
2018-08-08T15:32:00.081Z,1.20
2018-08-08T15:34:33.909Z,0.70
2018-08-08T15:37:08.080Z,1.27
2018-08-08T15:39:41.938Z,2.47
2018-08-08T15:42:15.759Z,1.03
2018-08-08T15:44:49.554Z,1.30
2018-08-08T15:47:23.932Z,1.60
2018-08-08T15:49:57.956Z,1.73
2018-08-08T15:52:31.867Z,1.40
2018-08-08T15:55:06.147Z,1.50
2018-08-08T15:57:39.821Z,1.53
2018-08-08T16:00:14.231Z,1.50
2018-08-08T16:02:48.095Z,1.40
2018-08-08T16:05:22.551Z,1.73
2018-08-08T16:07:56.589Z,1.67
2018-08-08T16:10:30.615Z,1.40
2018-08-08T16:13:04.492Z,1.40
2018-08-08T16:15:38.263Z,1.47
2018-08-08T16:18:11.884Z,1.53
2018-08-08T16:20:45.807Z,1.67
2018-08-08T16:23:19.676Z,1.57
2018-08-08T16:25:53.600Z,1.60
2018-08-08T16:28:27.571Z,1.60
2018-08-08T16:31:01.368Z,1.63
2018-08-08T16:33:35.237Z,2.17
2018-08-08T16:36:09.299Z,1.60
2018-08-08T16:38:43.056Z,1.90
2018-08-08T16:41:16.940Z,1.47
2018-08-08T16:43:50.816Z,1.80
2018-08-08T16:46:24.566Z,1.93
2018-08-08T16:48:58.461Z,1.50
2018-08-08T16:51:32.462Z,1.70
2018-08-08T16:54:06.268Z,1.80
2018-08-08T16:56:40.039Z,1.70
2018-08-08T16:59:14.153Z,1.60
2018-08-08T17:01:49.292Z,1.53
2018-08-08T17:04:23.189Z,1.70
2018-08-08T17:06:57.108Z,1.60
2018-08-08T17:09:30.940Z,2.00
2018-08-08T17:12:05.061Z,1.70
2018-08-08T17:14:39.314Z,1.40
2018-08-08T17:17:13.398Z,1.40
2018-08-08T17:19:47.404Z,1.50
2018-08-08T17:22:21.633Z,1.90
2018-08-08T17:24:55.475Z,1.90
2018-08-08T17:27:29.245Z,1.60
2018-08-08T17:30:03.466Z,1.97
2018-08-08T17:32:37.361Z,1.60
2018-08-08T17:35:11.335Z,1.80
2018-08-08T17:37:45.259Z,1.90
2018-08-08T17:40:19.125Z,1.30
2018-08-08T17:42:52.968Z,1.50
2018-08-08T17:45:26.817Z,1.43
2018-08-08T17:48:00.621Z,1.60
2018-08-08T17:50:34.789Z,1.60
2018-08-08T17:53:08.694Z,1.50
2018-08-08T17:55:42.574Z,1.50
2018-08-08T17:58:16.310Z,1.50
2018-08-08T18:00:50.391Z,1.40
2018-08-08T18:03:24.111Z,1.70
2018-08-08T18:05:58.362Z,1.50
2018-08-08T18:08:32.308Z,1.77
2018-08-08T18:11:06.104Z,1.30
2018-08-08T18:13:40.029Z,1.37
2018-08-08T18:16:13.883Z,1.33
2018-08-08T18:18:48.002Z,1.43
2018-08-08T18:21:21.922Z,1.70
2018-08-08T18:23:55.847Z,1.40
2018-08-08T18:26:29.664Z,1.43
2018-08-08T18:29:03.408Z,1.60
2018-08-08T18:31:37.614Z,1.67
2018-08-08T18:34:11.545Z,1.50
2018-08-08T18:36:45.456Z,1.60
2018-08-08T18:39:19.173Z,1.47
2018-08-08T18:41:52.908Z,1.40
2018-08-08T18:44:26.798Z,1.30
2018-08-08T18:47:00.534Z,1.60
2018-08-08T18:49:34.324Z,1.67
2018-08-08T18:52:08.157Z,1.77
2018-08-08T18:54:42.189Z,1.70
2018-08-08T18:57:16.191Z,2.30
2018-08-08T18:59:50.071Z,1.93
2018-08-08T19:02:24.002Z,1.57
2018-08-08T19:04:57.913Z,1.40
2018-08-08T19:07:31.906Z,1.57
2018-08-08T19:10:06.616Z,1.90
2018-08-08T19:12:40.439Z,2.10
2018-08-08T19:15:14.205Z,1.70
2018-08-08T19:17:47.853Z,1.60
2018-08-08T19:20:21.692Z,2.00
2018-08-08T19:22:55.644Z,1.80
2018-08-08T19:25:29.540Z,2.10
2018-08-08T19:28:03.344Z,1.83
2018-08-08T19:30:37.132Z,1.90
2018-08-08T19:33:10.771Z,1.70
2018-08-08T19:35:44.487Z,1.90
2018-08-08T19:38:18.112Z,2.20
2018-08-08T19:40:52.042Z,2.07
2018-08-08T19:43:25.885Z,1.77
2018-08-08T19:45:59.698Z,1.90
2018-08-08T19:48:33.397Z,1.83
2018-08-08T19:51:07.269Z,1.90
2018-08-08T19:53:41.054Z,1.80
2018-08-08T19:56:14.940Z,1.80
2018-08-08T19:58:48.812Z,1.93
2018-08-08T20:01:22.681Z,1.57
2018-08-08T20:03:56.638Z,2.00
2018-08-08T20:06:30.449Z,1.73
2018-08-08T20:09:06.272Z,2.00
2018-08-08T20:11:40.184Z,1.70
2018-08-08T20:14:13.975Z,1.70
2018-08-08T20:16:47.781Z,1.93
2018-08-08T20:19:21.616Z,1.80
2018-08-08T20:21:55.557Z,1.80
2018-08-08T20:24:29.209Z,1.80
2018-08-08T20:27:03.093Z,1.87
2018-08-08T20:29:36.963Z,2.27
2018-08-08T20:32:11.750Z,1.80
2018-08-08T20:34:45.569Z,1.97
2018-08-08T20:37:19.810Z,2.00
2018-08-08T20:39:53.651Z,2.07
2018-08-08T20:42:27.447Z,2.27
2018-08-08T20:45:01.064Z,1.87
2018-08-08T20:47:34.820Z,2.30
2018-08-08T20:50:08.509Z,2.07
2018-08-08T20:52:42.287Z,2.00
2018-08-08T20:55:16.386Z,1.87
2018-08-08T20:57:50.170Z,2.13
2018-08-08T21:00:24.197Z,2.17
2018-08-08T21:02:57.976Z,2.23
2018-08-08T21:05:31.757Z,2.13
2018-08-08T21:08:05.635Z,2.00
2018-08-08T21:10:39.386Z,2.17
2018-08-08T21:13:13.294Z,1.97
2018-08-08T21:15:47.205Z,2.23
2018-08-08T21:18:21.033Z,2.10
2018-08-08T21:20:54.886Z,1.87
2018-08-08T21:23:28.528Z,1.90
2018-08-08T21:26:02.297Z,2.20
2018-08-08T21:28:36.129Z,2.47
2018-08-08T21:31:10.065Z,2.60
2018-08-08T21:33:43.883Z,3.13
2018-08-08T21:36:17.823Z,2.33
2018-08-08T21:38:51.647Z,2.57
2018-08-08T21:41:25.553Z,2.20
2018-08-08T21:43:59.425Z,2.20
2018-08-08T21:46:33.851Z,2.53
2018-08-08T21:49:08.436Z,1.93
2018-08-08T21:51:42.436Z,2.50
2018-08-08T21:54:22.049Z,2.73
2018-08-08T21:57:01.560Z,2.03
2018-08-08T21:59:41.777Z,2.63
2018-08-08T22:02:21.656Z,2.43
2018-08-08T22:06:04.236Z,2.43
2018-08-08T22:08:43.764Z,2.53
2018-08-08T22:11:24.012Z,2.10
2018-08-08T22:14:03.535Z,2.27
2018-08-08T22:16:43.725Z,2.70
2018-08-08T22:19:28.235Z,2.40
2018-08-08T22:22:02.242Z,2.60
2018-08-08T22:24:36.277Z,2.60
2018-08-08T22:27:10.272Z,2.57
2018-08-08T22:29:44.997Z,2.60
2018-08-08T22:32:18.972Z,2.60
2018-08-08T22:34:53.342Z,2.60
2018-08-08T22:37:28.257Z,2.73
2018-08-08T22:40:03.004Z,2.80
2018-08-08T22:42:37.699Z,2.77
2018-08-08T22:45:11.742Z,2.33
2018-08-08T22:47:45.726Z,2.57
2018-08-08T22:50:19.779Z,2.63
2018-08-08T22:52:53.652Z,2.77
2018-08-08T22:55:27.457Z,2.90
2018-08-08T22:58:01.209Z,2.77
2018-08-08T23:00:34.889Z,2.87
2018-08-08T23:03:08.841Z,2.60
2018-08-08T23:05:42.514Z,2.33
2018-08-08T23:08:16.322Z,3.17
2018-08-08T23:10:50.144Z,3.07
2018-08-08T23:13:24.194Z,2.73
2018-08-08T23:15:57.889Z,2.80
2018-08-08T23:18:31.949Z,2.97
2018-08-08T23:21:05.797Z,3.13
2018-08-08T23:23:39.669Z,2.90
2018-08-08T23:26:13.781Z,3.20
2018-08-08T23:28:47.698Z,3.30
2018-08-08T23:31:21.588Z,2.80
2018-08-08T23:33:57.023Z,3.03
2018-08-08T23:36:30.714Z,3.10
2018-08-08T23:39:06.617Z,2.90
2018-08-08T23:41:40.358Z,3.03
2018-08-08T23:44:14.173Z,2.67
2018-08-08T23:46:47.906Z,3.23
2018-08-08T23:49:21.673Z,3.00
2018-08-08T23:51:55.508Z,3.07
2018-08-08T23:54:29.417Z,2.70
2018-08-08T23:57:03.484Z,3.10
2018-08-08T23:59:37.218Z,3.10
